createdAt,value
2023-04-18T00:00:03.681Z,5.700000
2023-04-18T00:01:00.544Z,5.700000
2023-04-18T00:02:00.731Z,5.700000
2023-04-18T00:03:03.224Z,5.800000
2023-04-18T00:04:00.816Z,5.800000
2023-04-18T00:05:03.220Z,5.800000
2023-04-18T00:06:00.653Z,5.700000
2023-04-18T00:07:00.584Z,5.700000
2023-04-18T00:08:00.654Z,5.700000
2023-04-18T00:09:00.641Z,5.700000
2023-04-18T00:10:03.892Z,5.600000
2023-04-18T00:11:00.629Z,5.600000
2023-04-18T00:12:00.715Z,5.600000
2023-04-18T00:13:00.642Z,5.600000
2023-04-18T00:14:00.715Z,5.600000
2023-04-18T00:15:03.188Z,5.600000
2023-04-18T00:16:00.752Z,5.600000
2023-04-18T00:17:00.676Z,5.600000
2023-04-18T00:18:00.790Z,5.600000
2023-04-18T00:19:00.664Z,5.500000
2023-04-18T00:20:05.006Z,5.500000
2023-04-18T00:21:00.672Z,5.500000
2023-04-18T00:22:00.765Z,5.500000
2023-04-18T00:23:00.691Z,5.500000
2023-04-18T00:24:00.758Z,5.500000
2023-04-18T00:25:03.198Z,5.500000
2023-04-18T00:26:00.840Z,5.500000
2023-04-18T00:27:00.708Z,5.500000
2023-04-18T00:28:01.047Z,5.500000
2023-04-18T00:29:00.696Z,5.500000
2023-04-18T00:30:04.093Z,5.500000
2023-04-18T00:31:00.763Z,5.500000
2023-04-18T00:32:00.819Z,5.500000
2023-04-18T00:33:00.765Z,5.500000
2023-04-18T00:34:00.837Z,5.500000
2023-04-18T00:35:03.164Z,5.500000
2023-04-18T00:36:00.840Z,5.500000
2023-04-18T00:37:00.744Z,5.500000
2023-04-18T00:38:00.816Z,5.500000
2023-04-18T00:39:00.754Z,5.500000
2023-04-18T00:40:03.944Z,5.500000
2023-04-18T00:41:00.752Z,5.400000
2023-04-18T00:42:00.853Z,5.400000
2023-04-18T00:43:00.774Z,5.400000
2023-04-18T00:44:00.847Z,5.400000
2023-04-18T00:45:04.169Z,5.400000
2023-04-18T00:46:08.121Z,5.300000
2023-04-18T00:47:00.783Z,5.300000
2023-04-18T00:48:00.953Z,5.300000
2023-04-18T00:49:00.812Z,5.300000
2023-04-18T00:50:03.983Z,5.300000
2023-04-18T00:51:00.837Z,5.200000
2023-04-18T00:52:00.912Z,5.200000
2023-04-18T00:53:00.816Z,5.200000
2023-04-18T00:54:00.924Z,5.200000
2023-04-18T00:55:03.511Z,5.200000
2023-04-18T00:56:00.909Z,5.200000
2023-04-18T00:57:00.878Z,5.200000
2023-04-18T00:58:00.948Z,5.200000
2023-04-18T00:59:00.865Z,5.200000
2023-04-18T01:00:04.397Z,5.200000
2023-04-18T01:01:00.903Z,5.100000
2023-04-18T01:02:01.041Z,5.100000
2023-04-18T01:03:01.042Z,5.100000
2023-04-18T01:04:01.167Z,5.100000
2023-04-18T01:05:03.431Z,5.100000
2023-04-18T01:06:01.003Z,5.000000
2023-04-18T01:07:00.955Z,5.000000
2023-04-18T01:08:01.241Z,5.000000
2023-04-18T01:09:00.973Z,5.000000
2023-04-18T01:10:04.752Z,5.000000
2023-04-18T01:11:00.948Z,5.000000
2023-04-18T01:12:01.036Z,4.900000
2023-04-18T01:13:00.980Z,4.900000
2023-04-18T01:14:01.078Z,4.900000
2023-04-18T01:15:07.408Z,4.900000
2023-04-18T01:16:08.399Z,4.900000
2023-04-18T01:17:01.014Z,4.900000
2023-04-18T01:18:01.120Z,4.900000
2023-04-18T01:19:01.002Z,4.900000
2023-04-18T01:20:03.839Z,4.900000
2023-04-18T01:21:01.044Z,4.900000
2023-04-18T01:22:01.116Z,4.800000
2023-04-18T01:23:01.036Z,4.800000
2023-04-18T01:24:01.133Z,4.700000
2023-04-18T01:25:03.763Z,4.700000
2023-04-18T01:26:01.109Z,4.700000
2023-04-18T01:27:01.091Z,4.700000
2023-04-18T01:28:01.139Z,4.700000
2023-04-18T01:29:01.048Z,4.700000
2023-04-18T01:30:05.459Z,4.700000
2023-04-18T01:31:01.087Z,4.700000
2023-04-18T01:32:01.202Z,4.600000
2023-04-18T01:33:01.256Z,4.600000
2023-04-18T01:34:01.203Z,4.600000
2023-04-18T01:35:03.781Z,4.600000
2023-04-18T01:36:01.227Z,4.600000
2023-04-18T01:37:01.100Z,4.600000
2023-04-18T01:38:01.375Z,4.600000
2023-04-18T01:39:01.128Z,4.600000
2023-04-18T01:40:05.826Z,4.600000
2023-04-18T01:41:01.155Z,4.600000
2023-04-18T01:42:01.231Z,4.600000
2023-04-18T01:43:01.149Z,4.600000
2023-04-18T01:44:01.377Z,4.600000
2023-04-18T01:45:03.844Z,4.600000
2023-04-18T01:46:01.272Z,4.600000
2023-04-18T01:47:01.272Z,4.600000
2023-04-18T01:48:01.260Z,4.600000
2023-04-18T01:49:01.153Z,4.600000
2023-04-18T01:50:03.246Z,4.600000
2023-04-18T01:51:00.201Z,4.600000
2023-04-18T01:52:00.262Z,4.500000
2023-04-18T01:53:00.194Z,4.500000
2023-04-18T01:54:00.300Z,4.500000
2023-04-18T01:55:02.720Z,4.500000
2023-04-18T01:56:00.311Z,4.500000
2023-04-18T01:57:00.208Z,4.500000
2023-04-18T01:58:00.274Z,4.500000
2023-04-18T01:59:00.218Z,4.500000
2023-04-18T02:00:03.377Z,4.500000
2023-04-18T02:01:00.283Z,4.500000
2023-04-18T02:02:00.463Z,4.500000
2023-04-18T02:03:00.410Z,4.500000
2023-04-18T02:04:00.399Z,4.400000
2023-04-18T02:05:02.738Z,4.400000
2023-04-18T02:06:00.369Z,4.400000
2023-04-18T02:07:00.263Z,4.400000
2023-04-18T02:08:00.358Z,4.400000
2023-04-18T02:09:00.297Z,4.400000
2023-04-18T02:10:03.340Z,4.300000
2023-04-18T02:11:00.269Z,4.300000
2023-04-18T02:12:00.359Z,4.200000
2023-04-18T02:13:00.278Z,4.200000
2023-04-18T02:14:00.406Z,4.200000
2023-04-18T02:15:02.753Z,4.200000
2023-04-18T02:16:00.438Z,4.200000
2023-04-18T02:17:00.308Z,4.100000
2023-04-18T02:18:00.536Z,4.100000
2023-04-18T02:19:00.305Z,4.100000
2023-04-18T02:20:03.449Z,4.000000
2023-04-18T02:21:00.333Z,4.000000
2023-04-18T02:22:00.407Z,4.000000
2023-04-18T02:23:00.337Z,4.000000
2023-04-18T02:24:00.420Z,4.000000
2023-04-18T02:25:02.765Z,3.900000
2023-04-18T02:26:00.438Z,3.900000
2023-04-18T02:27:00.386Z,3.800000
2023-04-18T02:28:00.430Z,3.800000
2023-04-18T02:29:00.358Z,3.800000
2023-04-18T02:30:03.515Z,3.700000
2023-04-18T02:31:00.380Z,3.700000
2023-04-18T02:32:00.543Z,3.600000
2023-04-18T02:33:00.422Z,3.600000
2023-04-18T02:34:00.467Z,3.600000
2023-04-18T02:35:03.810Z,3.600000
2023-04-18T02:36:00.486Z,3.600000
2023-04-18T02:37:00.429Z,3.500000
2023-04-18T02:38:00.505Z,3.500000
2023-04-18T02:39:00.440Z,3.500000
2023-04-18T02:40:03.314Z,3.400000
2023-04-18T02:41:00.425Z,3.400000
2023-04-18T02:42:00.526Z,3.400000
2023-04-18T02:43:00.468Z,3.400000
2023-04-18T02:44:00.557Z,3.400000
2023-04-18T02:45:03.533Z,3.400000
2023-04-18T02:46:00.551Z,3.400000
2023-04-18T02:47:00.466Z,3.400000
2023-04-18T02:48:00.669Z,3.400000
2023-04-18T02:49:00.473Z,3.400000
2023-04-18T02:50:03.621Z,3.300000
2023-04-18T02:51:00.510Z,3.300000
2023-04-18T02:52:00.572Z,3.300000
2023-04-18T02:53:00.506Z,3.300000
2023-04-18T02:54:00.609Z,3.300000
2023-04-18T02:55:03.539Z,3.300000
2023-04-18T02:56:00.604Z,3.300000
2023-04-18T02:57:00.524Z,3.300000
2023-04-18T02:58:00.602Z,3.400000
2023-04-18T02:59:00.527Z,3.400000
2023-04-18T03:00:03.544Z,3.400000
2023-04-18T03:01:00.576Z,3.400000
2023-04-18T03:02:00.681Z,3.400000
2023-04-18T03:03:00.643Z,3.400000
2023-04-18T03:04:00.643Z,3.400000
2023-04-18T03:05:03.451Z,3.400000
2023-04-18T03:06:00.689Z,3.400000
2023-04-18T03:07:00.577Z,3.400000
2023-04-18T03:08:00.670Z,3.500000
2023-04-18T03:09:00.602Z,3.500000
2023-04-18T03:10:03.703Z,3.500000
2023-04-18T03:11:00.606Z,3.500000
2023-04-18T03:12:00.680Z,3.500000
2023-04-18T03:13:00.604Z,3.500000
2023-04-18T03:14:00.727Z,3.500000
2023-04-18T03:15:04.272Z,3.500000
2023-04-18T03:16:00.760Z,3.500000
2023-04-18T03:17:00.629Z,3.500000
2023-04-18T03:18:00.734Z,3.500000
2023-04-18T03:19:00.636Z,3.500000
2023-04-18T03:20:03.594Z,3.500000
2023-04-18T03:21:00.656Z,3.500000
2023-04-18T03:22:00.733Z,3.500000
2023-04-18T03:23:00.659Z,3.500000
2023-04-18T03:24:00.732Z,3.500000
2023-04-18T03:25:03.391Z,3.500000
2023-04-18T03:26:00.748Z,3.600000
2023-04-18T03:27:00.719Z,3.600000
2023-04-18T03:28:00.748Z,3.600000
2023-04-18T03:29:00.667Z,3.600000
2023-04-18T03:30:05.096Z,3.600000
2023-04-18T03:31:00.780Z,3.600000
2023-04-18T03:32:01.964Z,3.600000
2023-04-18T03:33:00.787Z,3.600000
2023-04-18T03:34:00.793Z,3.600000
2023-04-18T03:35:03.202Z,3.600000
2023-04-18T03:36:00.848Z,3.500000
2023-04-18T03:37:00.723Z,3.500000
2023-04-18T03:38:00.839Z,3.500000
2023-04-18T03:39:00.757Z,3.500000
2023-04-18T03:40:03.876Z,3.500000
2023-04-18T03:41:00.742Z,3.500000
2023-04-18T03:42:00.831Z,3.500000
2023-04-18T03:43:00.775Z,3.500000
2023-04-18T03:44:00.851Z,3.500000
2023-04-18T03:45:03.253Z,3.500000
2023-04-18T03:46:00.842Z,3.500000
2023-04-18T03:47:00.772Z,3.500000
2023-04-18T03:48:00.931Z,3.500000
2023-04-18T03:49:00.810Z,3.500000
2023-04-18T03:50:03.768Z,3.500000
2023-04-18T03:51:00.845Z,3.500000
2023-04-18T03:52:00.951Z,3.500000
2023-04-18T03:53:00.828Z,3.400000
2023-04-18T03:54:00.960Z,3.400000
2023-04-18T03:55:03.281Z,3.400000
2023-04-18T03:56:00.926Z,3.400000
2023-04-18T03:57:00.865Z,3.400000
2023-04-18T03:58:00.901Z,3.400000
2023-04-18T03:59:00.838Z,3.400000
2023-04-18T04:00:04.097Z,3.400000
2023-04-18T04:01:00.879Z,3.400000
2023-04-18T04:02:01.140Z,3.400000
2023-04-18T04:03:01.045Z,3.400000
2023-04-18T04:04:01.025Z,3.400000
2023-04-18T04:05:03.535Z,3.300000
2023-04-18T04:06:00.973Z,3.300000
2023-04-18T04:07:00.896Z,3.300000
2023-04-18T04:08:00.993Z,3.300000
2023-04-18T04:09:00.960Z,3.300000
2023-04-18T04:10:04.252Z,3.300000
2023-04-18T04:11:00.911Z,3.300000
2023-04-18T04:12:01.011Z,3.300000
2023-04-18T04:13:00.923Z,3.300000
2023-04-18T04:14:01.019Z,3.300000
2023-04-18T04:15:03.560Z,3.300000
2023-04-18T04:16:04.410Z,3.300000
2023-04-18T04:17:00.969Z,3.300000
2023-04-18T04:18:01.062Z,3.300000
2023-04-18T04:19:00.960Z,3.300000
2023-04-18T04:20:04.145Z,3.300000
2023-04-18T04:21:01.021Z,3.200000
2023-04-18T04:22:01.048Z,3.200000
2023-04-18T04:23:00.995Z,3.200000
2023-04-18T04:24:01.074Z,3.200000
2023-04-18T04:25:04.330Z,3.200000
2023-04-18T04:26:01.126Z,3.200000
2023-04-18T04:27:01.013Z,3.200000
2023-04-18T04:28:01.082Z,3.200000
2023-04-18T04:29:01.028Z,3.200000
2023-04-18T04:30:05.488Z,3.200000
2023-04-18T04:31:01.081Z,3.200000
2023-04-18T04:32:01.218Z,3.200000
2023-04-18T04:33:01.096Z,3.200000
2023-04-18T04:34:01.128Z,3.200000
2023-04-18T04:35:04.049Z,3.200000
2023-04-18T04:36:57.594Z,3.200000
2023-04-18T04:37:01.070Z,3.200000
2023-04-18T04:38:01.185Z,3.200000
2023-04-18T04:39:01.096Z,3.200000
2023-04-18T04:40:04.099Z,3.200000
2023-04-18T04:41:01.123Z,3.200000
2023-04-18T04:42:01.203Z,3.200000
2023-04-18T04:43:01.088Z,3.200000
2023-04-18T04:44:01.364Z,3.200000
2023-04-18T04:45:05.241Z,3.200000
2023-04-18T04:46:01.289Z,3.200000
2023-04-18T04:47:01.106Z,3.200000
2023-04-18T04:48:01.264Z,3.200000
2023-04-18T04:49:01.145Z,3.200000
2023-04-18T04:50:04.160Z,3.200000
2023-04-18T04:51:01.152Z,3.400000
2023-04-18T04:52:02.079Z,3.400000
2023-04-18T04:53:01.164Z,3.400000
2023-04-18T04:54:01.339Z,3.400000
2023-04-18T04:55:05.725Z,3.400000
2023-04-18T04:56:01.257Z,3.400000
2023-04-18T04:57:00.185Z,3.500000
2023-04-18T04:58:00.492Z,3.500000
2023-04-18T04:59:00.187Z,3.500000
2023-04-18T05:00:03.867Z,3.500000
2023-04-18T05:01:00.252Z,3.500000
2023-04-18T05:02:07.587Z,3.500000
2023-04-18T05:03:00.464Z,3.500000
2023-04-18T05:04:00.448Z,3.600000
2023-04-18T05:05:03.720Z,3.600000
2023-04-18T05:06:00.627Z,3.600000
2023-04-18T05:07:00.264Z,3.600000
2023-04-18T05:08:00.347Z,3.600000
2023-04-18T05:09:00.281Z,3.600000
2023-04-18T05:10:03.186Z,3.600000
2023-04-18T05:11:00.314Z,3.600000
2023-04-18T05:12:00.382Z,3.700000
2023-04-18T05:13:00.300Z,3.700000
2023-04-18T05:14:00.699Z,3.800000
2023-04-18T05:15:04.767Z,3.800000
2023-04-18T05:16:00.453Z,3.800000
2023-04-18T05:17:00.506Z,3.900000
2023-04-18T05:18:00.465Z,3.900000
2023-04-18T05:19:00.356Z,3.900000
2023-04-18T05:20:03.682Z,4.100000
2023-04-18T05:21:00.368Z,4.100000
2023-04-18T05:22:00.440Z,4.100000
2023-04-18T05:23:00.364Z,4.100000
2023-04-18T05:26:00.462Z,4.300000
2023-04-18T05:27:00.394Z,4.300000
2023-04-18T05:28:00.486Z,4.300000
2023-04-18T05:29:00.410Z,4.400000
2023-04-18T05:30:03.346Z,4.400000
2023-04-18T05:31:00.487Z,4.400000
2023-04-18T05:32:00.509Z,4.600000
2023-04-18T05:33:00.567Z,4.600000
2023-04-18T05:34:00.512Z,4.700000
2023-04-18T05:35:03.214Z,4.700000
2023-04-18T05:36:00.559Z,4.900000
2023-04-18T05:37:00.560Z,4.900000
2023-04-18T05:38:00.571Z,4.900000
2023-04-18T05:39:00.506Z,5.100000
2023-04-18T05:40:03.540Z,5.100000
2023-04-18T05:41:00.535Z,5.100000
2023-04-18T05:42:00.597Z,5.200000
2023-04-18T05:43:00.514Z,5.200000
2023-04-18T05:44:05.444Z,5.300000
2023-04-18T05:45:03.062Z,5.300000
2023-04-18T05:46:00.681Z,5.300000
2023-04-18T05:47:00.556Z,5.500000
2023-04-18T05:48:00.704Z,5.500000
2023-04-18T05:49:00.749Z,5.500000
2023-04-18T05:50:03.617Z,5.700000
2023-04-18T05:51:00.618Z,5.700000
2023-04-18T05:52:00.646Z,5.800000
2023-04-18T05:53:00.608Z,5.800000
2023-04-18T05:54:00.703Z,5.800000
2023-04-18T05:55:03.366Z,6.000000
2023-04-18T05:56:00.686Z,6.000000
2023-04-18T05:57:02.563Z,6.100000
2023-04-18T05:58:00.690Z,6.100000
2023-04-18T05:59:00.755Z,6.200000
2023-04-18T06:00:03.873Z,6.200000
2023-04-18T06:01:00.689Z,6.200000
2023-04-18T06:02:00.846Z,6.400000
2023-04-18T06:03:00.849Z,6.400000
2023-04-18T06:04:00.900Z,6.400000
2023-04-18T06:05:03.521Z,6.500000
2023-04-18T06:06:00.888Z,6.500000
2023-04-18T06:07:00.706Z,6.600000
2023-04-18T06:08:00.778Z,6.600000
2023-04-18T06:09:00.712Z,6.600000
2023-04-18T06:10:03.866Z,6.700000
2023-04-18T06:11:00.729Z,6.700000
2023-04-18T06:12:00.792Z,6.700000
2023-04-18T06:13:00.732Z,6.900000
2023-04-18T06:14:00.775Z,6.900000
2023-04-18T06:15:04.097Z,7.000000
2023-04-18T06:16:00.853Z,7.000000
2023-04-18T06:17:00.739Z,7.000000
2023-04-18T06:18:00.918Z,7.100000
2023-04-18T06:19:01.517Z,7.100000
2023-04-18T06:20:03.565Z,7.200000
2023-04-18T06:21:00.796Z,7.200000
2023-04-18T06:22:00.839Z,7.200000
2023-04-18T06:23:00.785Z,7.200000
2023-04-18T06:24:00.852Z,7.200000
2023-04-18T06:25:04.121Z,7.200000
2023-04-18T06:26:00.848Z,7.200000
2023-04-18T06:27:00.847Z,7.200000
2023-04-18T06:28:00.863Z,7.300000
2023-04-18T06:29:00.789Z,7.300000
2023-04-18T06:30:03.766Z,7.400000
2023-04-18T06:31:00.813Z,7.400000
2023-04-18T06:32:00.986Z,7.400000
2023-04-18T06:33:00.857Z,7.400000
2023-04-18T06:34:00.915Z,7.400000
2023-04-18T06:35:04.031Z,7.400000
2023-04-18T06:36:00.925Z,7.400000
2023-04-18T06:37:00.837Z,7.400000
2023-04-18T06:38:00.908Z,7.300000
2023-04-18T06:39:00.852Z,7.300000
2023-04-18T06:40:03.629Z,7.200000
2023-04-18T06:41:00.860Z,7.200000
2023-04-18T06:42:00.939Z,7.200000
2023-04-18T06:43:00.860Z,7.100000
2023-04-18T06:44:04.004Z,7.100000
2023-04-18T06:45:03.827Z,7.100000
2023-04-18T06:46:01.001Z,6.800000
2023-04-18T06:47:00.884Z,6.800000
2023-04-18T06:48:00.988Z,6.700000
2023-04-18T06:49:01.074Z,6.700000
2023-04-18T06:50:05.226Z,6.700000
2023-04-18T06:51:00.882Z,6.800000
2023-04-18T06:52:00.958Z,6.800000
2023-04-18T06:53:00.894Z,6.800000
2023-04-18T06:54:00.980Z,6.800000
2023-04-18T06:55:03.516Z,6.800000
2023-04-18T06:56:00.982Z,6.900000
2023-04-18T06:57:00.914Z,6.900000
2023-04-18T06:58:00.989Z,6.900000
2023-04-18T06:59:00.942Z,6.900000
2023-04-18T07:00:04.176Z,6.900000
2023-04-18T07:01:00.992Z,6.900000
2023-04-18T07:02:01.064Z,6.900000
2023-04-18T07:03:01.268Z,6.900000
2023-04-18T07:04:01.109Z,6.900000
2023-04-18T07:05:03.474Z,6.900000
2023-04-18T07:06:01.166Z,7.000000
2023-04-18T07:07:01.000Z,7.000000
2023-04-18T07:08:01.064Z,7.100000
2023-04-18T07:09:01.012Z,7.100000
2023-04-18T07:10:06.256Z,7.100000
2023-04-18T07:11:01.027Z,7.200000
2023-04-18T07:12:01.129Z,7.200000
2023-04-18T07:13:01.001Z,7.400000
2023-04-18T07:14:01.110Z,7.400000
2023-04-18T07:15:03.566Z,7.400000
2023-04-18T07:16:01.087Z,7.400000
2023-04-18T07:17:01.048Z,7.400000
2023-04-18T07:18:01.184Z,7.800000
2023-04-18T07:19:01.025Z,7.800000
2023-04-18T07:20:04.151Z,7.800000
2023-04-18T07:21:01.034Z,7.900000
2023-04-18T07:22:01.149Z,7.900000
2023-04-18T07:23:01.057Z,7.900000
2023-04-18T07:24:01.169Z,7.900000
2023-04-18T07:25:03.681Z,8.000000
2023-04-18T07:26:01.145Z,8.000000
2023-04-18T07:27:01.117Z,8.000000
2023-04-18T07:28:01.140Z,8.300000
2023-04-18T07:29:01.080Z,8.300000
2023-04-18T07:30:04.794Z,8.300000
2023-04-18T07:31:01.230Z,8.400000
2023-04-18T07:32:01.180Z,8.400000
2023-04-18T07:33:01.142Z,8.300000
2023-04-18T07:34:01.216Z,8.300000
2023-04-18T07:35:03.666Z,8.300000
2023-04-18T07:36:01.253Z,8.300000
2023-04-18T07:37:01.145Z,8.300000
2023-04-18T07:38:01.231Z,8.400000
2023-04-18T07:39:01.141Z,8.400000
2023-04-18T07:40:04.737Z,8.400000
2023-04-18T07:41:01.138Z,8.700000
2023-04-18T07:42:01.325Z,8.700000
2023-04-18T07:43:01.166Z,8.700000
2023-04-18T07:44:01.318Z,8.800000
2023-04-18T07:45:03.956Z,8.800000
2023-04-18T07:46:01.360Z,9.000000
2023-04-18T07:47:01.189Z,9.000000
2023-04-18T07:48:00.338Z,9.300000
2023-04-18T07:49:00.174Z,9.300000
2023-04-18T07:50:04.656Z,9.300000
2023-04-18T07:51:00.204Z,9.400000
2023-04-18T07:52:00.280Z,9.400000
2023-04-18T07:53:00.213Z,9.400000
2023-04-18T07:54:00.758Z,9.200000
2023-04-18T07:55:02.806Z,9.200000
2023-04-18T07:56:00.282Z,9.200000
2023-04-18T07:57:00.344Z,9.200000
2023-04-18T07:58:00.383Z,9.300000
2023-04-18T07:59:00.231Z,9.300000
2023-04-18T08:00:05.326Z,9.300000
2023-04-18T08:01:00.241Z,9.200000
2023-04-18T08:02:00.361Z,9.200000
2023-04-18T08:03:00.371Z,9.200000
2023-04-18T08:04:00.483Z,9.300000
2023-04-18T08:05:03.955Z,9.300000
2023-04-18T08:06:00.386Z,9.300000
2023-04-18T08:07:00.291Z,9.200000
2023-04-18T08:08:00.544Z,9.200000
2023-04-18T08:09:00.283Z,9.100000
2023-04-18T08:10:03.597Z,9.100000
2023-04-18T08:11:00.287Z,9.200000
2023-04-18T08:12:00.466Z,9.200000
2023-04-18T08:13:00.318Z,9.200000
2023-04-18T08:14:00.399Z,9.300000
2023-04-18T08:15:04.495Z,9.300000
2023-04-18T08:16:00.470Z,9.300000
2023-04-18T08:17:00.333Z,9.200000
2023-04-18T08:18:00.585Z,9.200000
2023-04-18T08:19:00.361Z,9.200000
2023-04-18T08:20:03.621Z,9.200000
2023-04-18T08:21:00.366Z,9.200000
2023-04-18T08:22:00.524Z,9.200000
2023-04-18T08:24:00.606Z,9.100000
2023-04-18T08:25:05.336Z,9.100000
2023-04-18T08:26:00.555Z,9.100000
2023-04-18T08:27:00.415Z,9.100000
2023-04-18T08:28:00.477Z,9.100000
2023-04-18T08:29:00.469Z,9.200000
2023-04-18T08:30:03.490Z,9.200000
2023-04-18T08:31:00.464Z,9.200000
2023-04-18T08:32:00.610Z,9.200000
2023-04-18T08:33:00.570Z,9.200000
2023-04-18T08:34:01.329Z,9.100000
2023-04-18T08:35:03.084Z,9.100000
2023-04-18T08:36:00.553Z,9.200000
2023-04-18T08:37:00.437Z,9.200000
2023-04-18T08:38:00.515Z,9.200000
2023-04-18T08:39:00.467Z,9.300000
2023-04-18T08:40:03.672Z,9.300000
2023-04-18T08:41:00.517Z,9.300000
2023-04-18T08:42:00.588Z,9.300000
2023-04-18T08:43:00.473Z,9.300000
2023-04-18T08:44:00.587Z,9.400000
2023-04-18T08:45:03.086Z,9.400000
2023-04-18T08:46:00.657Z,9.400000
2023-04-18T08:47:00.506Z,9.400000
2023-04-18T08:48:00.671Z,9.400000
2023-04-18T08:49:00.521Z,9.400000
2023-04-18T08:50:17.241Z,9.400000
2023-04-18T08:51:00.533Z,9.400000
2023-04-18T08:52:00.609Z,9.400000
2023-04-18T08:53:00.527Z,9.400000
2023-04-18T08:54:00.675Z,9.400000
2023-04-18T08:55:05.097Z,9.400000
2023-04-18T08:56:00.636Z,9.400000
2023-04-18T08:57:00.592Z,9.500000
2023-04-18T08:58:00.649Z,9.500000
2023-04-18T08:59:00.584Z,9.500000
2023-04-18T09:00:07.456Z,9.500000
2023-04-18T09:01:00.663Z,9.500000
2023-04-18T09:02:01.392Z,9.500000
2023-04-18T09:03:00.779Z,9.500000
2023-04-18T09:04:01.570Z,9.500000
2023-04-18T09:05:03.237Z,9.500000
2023-04-18T09:06:02.311Z,9.500000
2023-04-18T09:07:00.662Z,9.500000
2023-04-18T09:08:08.180Z,9.500000
2023-04-18T09:09:00.665Z,9.500000
2023-04-18T09:10:07.039Z,9.500000
2023-04-18T09:11:00.679Z,9.500000
2023-04-18T09:12:01.379Z,9.600000
2023-04-18T09:13:00.668Z,9.600000
2023-04-18T09:14:01.754Z,9.600000
2023-04-18T09:15:03.369Z,9.600000
2023-04-18T09:16:01.845Z,9.600000
2023-04-18T09:17:00.957Z,9.600000
2023-04-18T09:18:00.845Z,9.600000
2023-04-18T09:19:00.687Z,9.600000
2023-04-18T09:20:06.674Z,9.600000
2023-04-18T09:21:00.721Z,9.600000
2023-04-18T09:22:00.822Z,9.600000
2023-04-18T09:23:00.842Z,10.000000
2023-04-18T09:24:00.822Z,10.000000
2023-04-18T09:25:03.587Z,10.400000
2023-04-18T09:26:00.826Z,10.400000
2023-04-18T09:27:00.742Z,10.400000
2023-04-18T09:28:00.976Z,10.600000
2023-04-18T09:29:00.739Z,10.600000
2023-04-18T09:30:05.192Z,10.700000
2023-04-18T09:31:00.780Z,10.700000
2023-04-18T09:32:00.850Z,10.700000
2023-04-18T09:33:00.816Z,10.600000
2023-04-18T09:34:00.879Z,10.600000
2023-04-18T09:35:04.582Z,10.600000
2023-04-18T09:36:00.932Z,10.600000
2023-04-18T09:37:00.836Z,10.600000
2023-04-18T09:38:00.864Z,10.800000
2023-04-18T09:39:00.892Z,10.800000
2023-04-18T09:40:04.223Z,10.800000
2023-04-18T09:41:00.802Z,10.800000
2023-04-18T09:42:00.957Z,10.800000
2023-04-18T09:43:00.828Z,11.000000
2023-04-18T09:44:00.953Z,11.000000
2023-04-18T09:45:03.375Z,11.000000
2023-04-18T09:46:00.961Z,11.000000
2023-04-18T09:47:00.869Z,11.000000
2023-04-18T09:48:00.989Z,11.200000
2023-04-18T09:49:00.844Z,11.200000
2023-04-18T09:50:04.318Z,11.100000
2023-04-18T09:51:00.885Z,11.100000
2023-04-18T09:52:00.939Z,11.200000
2023-04-18T09:53:00.863Z,11.200000
2023-04-18T09:54:00.962Z,11.200000
2023-04-18T09:55:04.589Z,11.200000
2023-04-18T09:56:00.994Z,11.200000
2023-04-18T09:57:00.910Z,11.200000
2023-04-18T09:58:01.013Z,11.200000
2023-04-18T09:59:00.878Z,11.200000
2023-04-18T10:00:05.598Z,11.200000
2023-04-18T10:01:00.995Z,11.200000
2023-04-18T10:02:01.162Z,11.100000
2023-04-18T10:03:01.050Z,11.100000
2023-04-18T10:04:01.287Z,11.100000
2023-04-18T10:05:05.193Z,11.100000
2023-04-18T10:06:01.055Z,11.100000
2023-04-18T10:07:01.025Z,11.100000
2023-04-18T10:08:01.091Z,11.100000
2023-04-18T10:09:01.014Z,11.100000
2023-04-18T10:10:04.881Z,11.100000
2023-04-18T10:11:00.984Z,11.200000
2023-04-18T10:12:02.143Z,11.200000
2023-04-18T10:13:01.058Z,11.400000
2023-04-18T10:14:01.066Z,11.400000
2023-04-18T10:15:05.280Z,11.500000
2023-04-18T10:16:01.149Z,11.500000
2023-04-18T10:17:01.058Z,11.500000
2023-04-18T10:18:05.441Z,11.300000
2023-04-18T10:19:01.038Z,11.300000
2023-04-18T10:20:05.534Z,11.200000
2023-04-18T10:21:01.078Z,11.200000
2023-04-18T10:22:01.149Z,11.200000
2023-04-18T10:23:01.107Z,11.200000
2023-04-18T10:24:01.162Z,11.200000
2023-04-18T10:25:03.764Z,11.100000
2023-04-18T10:26:01.295Z,11.100000
2023-04-18T10:27:01.100Z,11.100000
2023-04-18T10:28:01.166Z,11.100000
2023-04-18T10:29:01.078Z,11.100000
2023-04-18T10:30:05.410Z,11.200000
2023-04-18T10:31:01.182Z,11.200000
2023-04-18T10:32:01.279Z,11.200000
2023-04-18T10:33:01.204Z,11.300000
2023-04-18T10:34:05.101Z,11.300000
2023-04-18T10:35:03.811Z,11.300000
2023-04-18T10:36:01.228Z,11.300000
2023-04-18T10:37:01.139Z,11.300000
2023-04-18T10:38:01.255Z,11.400000
2023-04-18T10:39:01.154Z,11.400000
2023-04-18T10:40:06.613Z,11.400000
2023-04-18T10:41:00.160Z,11.700000
2023-04-18T10:42:00.288Z,11.700000
2023-04-18T10:43:00.180Z,11.900000
2023-04-18T10:44:00.255Z,11.900000
2023-04-18T10:45:02.767Z,11.900000
2023-04-18T10:46:00.257Z,12.000000
2023-04-18T10:47:00.269Z,12.000000
2023-04-18T10:48:00.415Z,12.300000
2023-04-18T10:49:00.218Z,12.300000
2023-04-18T10:50:09.883Z,12.300000
2023-04-18T10:51:00.223Z,12.600000
2023-04-18T10:52:00.337Z,12.600000
2023-04-18T10:53:00.230Z,13.100000
2023-04-18T10:54:00.575Z,13.100000
2023-04-18T10:55:02.875Z,13.100000
2023-04-18T10:56:00.325Z,13.100000
2023-04-18T10:57:00.268Z,13.100000
2023-04-18T10:58:00.334Z,13.200000
2023-04-18T10:59:00.265Z,13.200000
2023-04-18T11:00:04.878Z,13.200000
2023-04-18T11:01:00.342Z,12.800000
2023-04-18T11:02:00.439Z,12.800000
2023-04-18T11:03:00.539Z,12.800000
2023-04-18T11:04:00.678Z,12.900000
2023-04-18T11:05:02.879Z,12.900000
2023-04-18T11:06:00.428Z,13.200000
2023-04-18T11:07:00.320Z,13.200000
2023-04-18T11:08:00.573Z,13.200000
2023-04-18T11:09:00.343Z,13.300000
2023-04-18T11:10:03.434Z,13.300000
2023-04-18T11:11:00.350Z,13.300000
2023-04-18T11:12:00.452Z,13.300000
2023-04-18T11:13:00.391Z,13.300000
2023-04-18T11:14:00.463Z,12.900000
2023-04-18T11:15:03.119Z,12.900000
2023-04-18T11:16:00.680Z,13.100000
2023-04-18T11:17:00.381Z,13.100000
2023-04-18T11:18:00.582Z,13.100000
2023-04-18T11:19:00.382Z,13.400000
2023-04-18T11:20:04.774Z,13.400000
2023-04-18T11:21:00.414Z,13.200000
2023-04-18T11:22:00.596Z,13.200000
2023-04-18T11:23:00.445Z,13.200000
2023-04-18T11:24:00.533Z,12.900000
2023-04-18T11:25:03.042Z,12.900000
2023-04-18T11:26:00.525Z,12.600000
2023-04-18T11:27:00.519Z,12.600000
2023-04-18T11:28:00.760Z,12.600000
2023-04-18T11:29:00.433Z,12.700000
2023-04-18T11:30:03.960Z,12.700000
2023-04-18T11:31:00.483Z,12.900000
2023-04-18T11:32:00.779Z,12.900000
2023-04-18T11:33:00.613Z,12.900000
2023-04-18T11:34:00.899Z,12.900000
2023-04-18T11:35:03.111Z,12.900000
2023-04-18T11:36:01.006Z,12.700000
2023-04-18T11:37:00.486Z,12.700000
2023-04-18T11:38:01.729Z,12.700000
2023-04-18T11:39:00.528Z,12.600000
2023-04-18T11:40:03.758Z,12.600000
2023-04-18T11:41:00.507Z,12.700000
2023-04-18T11:42:01.231Z,12.700000
2023-04-18T11:43:00.500Z,12.800000